sensor_id;sensor_type;location;lat;lon;timestamp;P1;durP1;ratioP1;P2;durP2;ratioP2
74168;SDS011;62523;53.336;83.690;2022-11-03T00:07:18;6.63;;;3.80;;
74168;SDS011;62523;53.336;83.690;2022-11-03T00:12:20;5.80;;;4.72;;
74168;SDS011;62523;53.336;83.690;2022-11-03T00:17:22;5.00;;;4.10;;
74168;SDS011;62523;53.336;83.690;2022-11-03T00:22:23;5.90;;;4.90;;
74168;SDS011;62523;53.336;83.690;2022-11-03T00:27:24;5.00;;;3.85;;
74168;SDS011;62523;53.336;83.690;2022-11-03T00:32:26;6.60;;;4.20;;
74168;SDS011;62523;53.336;83.690;2022-11-03T00:37:27;8.18;;;5.28;;
74168;SDS011;62523;53.336;83.690;2022-11-03T00:47:29;9.80;;;5.97;;
74168;SDS011;62523;53.336;83.690;2022-11-03T00:52:30;7.15;;;5.35;;
74168;SDS011;62523;53.336;83.690;2022-11-03T00:57:31;7.47;;;5.28;;
74168;SDS011;62523;53.336;83.690;2022-11-03T01:02:33;8.27;;;6.55;;
74168;SDS011;62523;53.336;83.690;2022-11-03T01:07:34;7.38;;;5.40;;
74168;SDS011;62523;53.336;83.690;2022-11-03T01:12:35;7.72;;;5.70;;
74168;SDS011;62523;53.336;83.690;2022-11-03T01:22:40;9.93;;;6.75;;
74168;SDS011;62523;53.336;83.690;2022-11-03T01:27:41;8.30;;;6.53;;
74168;SDS011;62523;53.336;83.690;2022-11-03T01:32:42;7.63;;;6.47;;
74168;SDS011;62523;53.336;83.690;2022-11-03T01:37:43;8.40;;;5.18;;
74168;SDS011;62523;53.336;83.690;2022-11-03T01:42:44;9.15;;;5.50;;
74168;SDS011;62523;53.336;83.690;2022-11-03T01:47:46;14.02;;;8.52;;
74168;SDS011;62523;53.336;83.690;2022-11-03T01:52:49;38.03;;;24.17;;
74168;SDS011;62523;53.336;83.690;2022-11-03T01:57:56;7.78;;;5.65;;
74168;SDS011;62523;53.336;83.690;2022-11-03T02:03:01;6.35;;;5.05;;
74168;SDS011;62523;53.336;83.690;2022-11-03T02:08:07;7.82;;;5.00;;
74168;SDS011;62523;53.336;83.690;2022-11-03T02:13:23;16.30;;;5.07;;
74168;SDS011;62523;53.336;83.690;2022-11-03T02:18:28;17.27;;;6.28;;
74168;SDS011;62523;53.336;83.690;2022-11-03T02:29:01;6.05;;;4.22;;
74168;SDS011;62523;53.336;83.690;2022-11-03T02:39:41;8.95;;;5.43;;
74168;SDS011;62523;53.336;83.690;2022-11-03T02:44:46;7.47;;;6.05;;
74168;SDS011;62523;53.336;83.690;2022-11-03T02:49:49;7.40;;;5.93;;
74168;SDS011;62523;53.336;83.690;2022-11-03T02:54:53;7.60;;;6.57;;
74168;SDS011;62523;53.336;83.690;2022-11-03T03:00:03;9.45;;;7.25;;
74168;SDS011;62523;53.336;83.690;2022-11-03T03:05:07;7.47;;;5.47;;
74168;SDS011;62523;53.336;83.690;2022-11-03T03:10:18;6.50;;;5.40;;
74168;SDS011;62523;53.336;83.690;2022-11-03T03:21:12;3.47;;;3.15;;
74168;SDS011;62523;53.336;83.690;2022-11-03T03:31:03;18.42;;;4.20;;
74168;SDS011;62523;53.336;83.690;2022-11-03T03:36:08;4.20;;;3.80;;
74168;SDS011;62523;53.336;83.690;2022-11-03T03:41:13;9.60;;;6.97;;
74168;SDS011;62523;53.336;83.690;2022-11-03T03:46:21;17.13;;;9.90;;
74168;SDS011;62523;53.336;83.690;2022-11-03T03:51:26;12.20;;;8.02;;
74168;SDS011;62523;53.336;83.690;2022-11-03T03:56:35;11.10;;;7.03;;
74168;SDS011;62523;53.336;83.690;2022-11-03T04:01:58;13.00;;;9.02;;
74168;SDS011;62523;53.336;83.690;2022-11-03T04:06:59;9.52;;;6.35;;
74168;SDS011;62523;53.336;83.690;2022-11-03T04:12:18;24.63;;;5.63;;
74168;SDS011;62523;53.336;83.690;2022-11-03T04:17:42;7.60;;;4.93;;
74168;SDS011;62523;53.336;83.690;2022-11-03T04:23:03;6.75;;;4.75;;
74168;SDS011;62523;53.336;83.690;2022-11-03T04:28:09;7.25;;;5.00;;
74168;SDS011;62523;53.336;83.690;2022-11-03T04:33:14;5.30;;;4.80;;
74168;SDS011;62523;53.336;83.690;2022-11-03T04:38:20;6.13;;;4.20;;
74168;SDS011;62523;53.336;83.690;2022-11-03T04:43:30;8.93;;;4.65;;
74168;SDS011;62523;53.336;83.690;2022-11-03T04:48:34;9.32;;;5.53;;
74168;SDS011;62523;53.336;83.690;2022-11-03T04:58:36;5.73;;;4.60;;
74168;SDS011;62523;53.336;83.690;2022-11-03T05:03:37;7.25;;;4.82;;
74168;SDS011;62523;53.336;83.690;2022-11-03T05:08:41;7.72;;;4.93;;
74168;SDS011;62523;53.336;83.690;2022-11-03T05:13:43;6.65;;;5.53;;
74168;SDS011;62523;53.336;83.690;2022-11-03T05:18:45;20.23;;;12.40;;
74168;SDS011;62523;53.336;83.690;2022-11-03T05:23:51;7.93;;;5.25;;
74168;SDS011;62523;53.336;83.690;2022-11-03T05:28:56;6.90;;;5.63;;
74168;SDS011;62523;53.336;83.690;2022-11-03T05:34:27;12.48;;;7.60;;
74168;SDS011;62523;53.336;83.690;2022-11-03T05:39:35;9.35;;;6.95;;
74168;SDS011;62523;53.336;83.690;2022-11-03T05:44:40;16.42;;;9.10;;
74168;SDS011;62523;53.336;83.690;2022-11-03T05:49:41;13.35;;;9.05;;
74168;SDS011;62523;53.336;83.690;2022-11-03T05:54:43;11.23;;;8.20;;
74168;SDS011;62523;53.336;83.690;2022-11-03T06:04:47;18.70;;;9.02;;
74168;SDS011;62523;53.336;83.690;2022-11-03T06:09:48;14.55;;;9.32;;
74168;SDS011;62523;53.336;83.690;2022-11-03T06:14:51;10.88;;;8.02;;
74168;SDS011;62523;53.336;83.690;2022-11-03T06:19:53;13.07;;;9.50;;
74168;SDS011;62523;53.336;83.690;2022-11-03T06:25:08;10.52;;;8.35;;
74168;SDS011;62523;53.336;83.690;2022-11-03T06:30:24;6.75;;;5.80;;
74168;SDS011;62523;53.336;83.690;2022-11-03T06:35:28;10.57;;;6.88;;
74168;SDS011;62523;53.336;83.690;2022-11-03T06:45:35;9.30;;;6.32;;
74168;SDS011;62523;53.336;83.690;2022-11-03T06:50:36;14.75;;;7.65;;
74168;SDS011;62523;53.336;83.690;2022-11-03T06:55:37;13.68;;;10.13;;
74168;SDS011;62523;53.336;83.690;2022-11-03T07:00:40;13.48;;;7.88;;
74168;SDS011;62523;53.336;83.690;2022-11-03T07:05:44;12.73;;;7.68;;
74168;SDS011;62523;53.336;83.690;2022-11-03T07:10:46;13.65;;;8.00;;
74168;SDS011;62523;53.336;83.690;2022-11-03T07:15:49;22.23;;;9.07;;
74168;SDS011;62523;53.336;83.690;2022-11-03T07:20:52;11.18;;;8.35;;
74168;SDS011;62523;53.336;83.690;2022-11-03T07:25:58;14.15;;;9.18;;
74168;SDS011;62523;53.336;83.690;2022-11-03T07:31:01;16.38;;;9.30;;
74168;SDS011;62523;53.336;83.690;2022-11-03T07:36:19;19.52;;;7.63;;
74168;SDS011;62523;53.336;83.690;2022-11-03T07:41:25;34.63;;;20.20;;
74168;SDS011;62523;53.336;83.690;2022-11-03T07:46:31;14.48;;;8.02;;
74168;SDS011;62523;53.336;83.690;2022-11-03T07:51:33;17.83;;;9.85;;
74168;SDS011;62523;53.336;83.690;2022-11-03T08:01:52;12.65;;;9.32;;
74168;SDS011;62523;53.336;83.690;2022-11-03T08:06:55;17.92;;;10.63;;
74168;SDS011;62523;53.336;83.690;2022-11-03T08:11:57;23.60;;;11.13;;
74168;SDS011;62523;53.336;83.690;2022-11-03T08:16:58;26.80;;;14.30;;
74168;SDS011;62523;53.336;83.690;2022-11-03T08:21:59;18.63;;;10.38;;
74168;SDS011;62523;53.336;83.690;2022-11-03T08:27:00;37.33;;;13.38;;
74168;SDS011;62523;53.336;83.690;2022-11-03T08:32:03;18.42;;;11.85;;
74168;SDS011;62523;53.336;83.690;2022-11-03T08:37:04;22.13;;;11.60;;
74168;SDS011;62523;53.336;83.690;2022-11-03T08:42:05;19.88;;;11.00;;
74168;SDS011;62523;53.336;83.690;2022-11-03T08:47:07;21.60;;;13.40;;
74168;SDS011;62523;53.336;83.690;2022-11-03T08:52:08;37.15;;;12.73;;
74168;SDS011;62523;53.336;83.690;2022-11-03T08:57:09;16.65;;;10.52;;
74168;SDS011;62523;53.336;83.690;2022-11-03T09:02:10;28.20;;;13.18;;
74168;SDS011;62523;53.336;83.690;2022-11-03T09:07:12;22.55;;;13.93;;
74168;SDS011;62523;53.336;83.690;2022-11-03T09:12:13;31.45;;;13.25;;
74168;SDS011;62523;53.336;83.690;2022-11-03T09:22:16;19.43;;;12.00;;
74168;SDS011;62523;53.336;83.690;2022-11-03T09:27:17;22.88;;;11.88;;
74168;SDS011;62523;53.336;83.690;2022-11-03T09:32:18;20.77;;;15.10;;
74168;SDS011;62523;53.336;83.690;2022-11-03T09:37:19;27.38;;;18.20;;
74168;SDS011;62523;53.336;83.690;2022-11-03T09:42:22;32.72;;;17.65;;
74168;SDS011;62523;53.336;83.690;2022-11-03T09:47:31;38.33;;;19.20;;
74168;SDS011;62523;53.336;83.690;2022-11-03T09:52:37;32.28;;;17.60;;
74168;SDS011;62523;53.336;83.690;2022-11-03T10:02:39;22.20;;;14.57;;
74168;SDS011;62523;53.336;83.690;2022-11-03T10:07:43;20.20;;;14.27;;
74168;SDS011;62523;53.336;83.690;2022-11-03T10:12:49;15.75;;;10.88;;
74168;SDS011;62523;53.336;83.690;2022-11-03T10:17:53;12.13;;;9.90;;
74168;SDS011;62523;53.336;83.690;2022-11-03T10:22:55;17.45;;;8.23;;
74168;SDS011;62523;53.336;83.690;2022-11-03T10:33:24;12.70;;;9.32;;
74168;SDS011;62523;53.336;83.690;2022-11-03T10:38:32;19.20;;;10.00;;
74168;SDS011;62523;53.336;83.690;2022-11-03T10:43:36;19.48;;;11.30;;
74168;SDS011;62523;53.336;83.690;2022-11-03T10:48:39;14.18;;;9.70;;
74168;SDS011;62523;53.336;83.690;2022-11-03T10:53:40;23.48;;;14.30;;
74168;SDS011;62523;53.336;83.690;2022-11-03T10:58:42;27.08;;;12.55;;
74168;SDS011;62523;53.336;83.690;2022-11-03T11:03:44;14.75;;;9.00;;
74168;SDS011;62523;53.336;83.690;2022-11-03T11:08:46;14.70;;;9.05;;
74168;SDS011;62523;53.336;83.690;2022-11-03T11:25:18;15.77;;;10.40;;
74168;SDS011;62523;53.336;83.690;2022-11-03T11:51:02;14.55;;;8.18;;
74168;SDS011;62523;53.336;83.690;2022-11-03T11:56:09;20.58;;;9.30;;
74168;SDS011;62523;53.336;83.690;2022-11-03T12:01:24;14.57;;;8.55;;
74168;SDS011;62523;53.336;83.690;2022-11-03T12:06:31;14.65;;;9.35;;
74168;SDS011;62523;53.336;83.690;2022-11-03T12:11:41;25.10;;;11.70;;
74168;SDS011;62523;53.336;83.690;2022-11-03T12:16:43;22.70;;;15.05;;
74168;SDS011;62523;53.336;83.690;2022-11-03T12:21:46;23.92;;;13.43;;
74168;SDS011;62523;53.336;83.690;2022-11-03T12:26:48;30.67;;;12.30;;
74168;SDS011;62523;53.336;83.690;2022-11-03T12:31:50;22.88;;;14.93;;
74168;SDS011;62523;53.336;83.690;2022-11-03T12:41:52;18.17;;;12.93;;
74168;SDS011;62523;53.336;83.690;2022-11-03T12:46:53;14.93;;;11.63;;
74168;SDS011;62523;53.336;83.690;2022-11-03T12:56:56;32.95;;;13.45;;
74168;SDS011;62523;53.336;83.690;2022-11-03T13:01:57;18.67;;;13.90;;
74168;SDS011;62523;53.336;83.690;2022-11-03T13:06:58;25.52;;;13.23;;
74168;SDS011;62523;53.336;83.690;2022-11-03T13:11:59;23.60;;;16.95;;
74168;SDS011;62523;53.336;83.690;2022-11-03T13:17:19;171.82;;;114.28;;
74168;SDS011;62523;53.336;83.690;2022-11-03T13:22:20;36.83;;;23.90;;
74168;SDS011;62523;53.336;83.690;2022-11-03T13:32:23;39.90;;;26.50;;
74168;SDS011;62523;53.336;83.690;2022-11-03T13:37:25;30.67;;;17.38;;
74168;SDS011;62523;53.336;83.690;2022-11-03T13:42:26;29.98;;;18.75;;
74168;SDS011;62523;53.336;83.690;2022-11-03T13:47:27;23.70;;;16.85;;
74168;SDS011;62523;53.336;83.690;2022-11-03T13:52:30;25.48;;;16.13;;
74168;SDS011;62523;53.336;83.690;2022-11-03T13:57:32;22.02;;;15.32;;
74168;SDS011;62523;53.336;83.690;2022-11-03T14:02:33;14.57;;;12.65;;
74168;SDS011;62523;53.336;83.690;2022-11-03T14:07:35;17.50;;;10.60;;
74168;SDS011;62523;53.336;83.690;2022-11-03T14:12:39;17.27;;;11.57;;
74168;SDS011;62523;53.336;83.690;2022-11-03T14:17:40;12.52;;;10.27;;
74168;SDS011;62523;53.336;83.690;2022-11-03T14:22:41;14.38;;;11.88;;
74168;SDS011;62523;53.336;83.690;2022-11-03T14:27:44;12.27;;;10.35;;
74168;SDS011;62523;53.336;83.690;2022-11-03T14:32:46;11.43;;;9.57;;
74168;SDS011;62523;53.336;83.690;2022-11-03T14:37:50;31.38;;;25.83;;
74168;SDS011;62523;53.336;83.690;2022-11-03T14:42:51;10.38;;;8.27;;
74168;SDS011;62523;53.336;83.690;2022-11-03T14:47:52;16.38;;;13.18;;
74168;SDS011;62523;53.336;83.690;2022-11-03T14:52:53;15.77;;;11.93;;
74168;SDS011;62523;53.336;83.690;2022-11-03T14:57:54;18.13;;;14.13;;
74168;SDS011;62523;53.336;83.690;2022-11-03T15:02:56;16.42;;;12.82;;
74168;SDS011;62523;53.336;83.690;2022-11-03T15:07:57;13.43;;;11.57;;
74168;SDS011;62523;53.336;83.690;2022-11-03T15:12:58;12.50;;;10.45;;
74168;SDS011;62523;53.336;83.690;2022-11-03T15:18:00;26.63;;;19.17;;
74168;SDS011;62523;53.336;83.690;2022-11-03T15:23:05;17.95;;;12.95;;
74168;SDS011;62523;53.336;83.690;2022-11-03T15:28:06;17.20;;;11.65;;
74168;SDS011;62523;53.336;83.690;2022-11-03T15:38:09;12.73;;;10.60;;
74168;SDS011;62523;53.336;83.690;2022-11-03T15:43:10;33.83;;;27.05;;
74168;SDS011;62523;53.336;83.690;2022-11-03T15:48:11;15.93;;;10.55;;
74168;SDS011;62523;53.336;83.690;2022-11-03T15:53:13;10.90;;;9.30;;
74168;SDS011;62523;53.336;83.690;2022-11-03T15:58:15;17.42;;;12.27;;
74168;SDS011;62523;53.336;83.690;2022-11-03T16:03:16;17.58;;;13.52;;
74168;SDS011;62523;53.336;83.690;2022-11-03T16:08:17;16.00;;;12.98;;
74168;SDS011;62523;53.336;83.690;2022-11-03T16:13:18;13.93;;;12.43;;
74168;SDS011;62523;53.336;83.690;2022-11-03T16:18:20;21.48;;;18.08;;
74168;SDS011;62523;53.336;83.690;2022-11-03T16:28:23;29.63;;;19.88;;
74168;SDS011;62523;53.336;83.690;2022-11-03T16:33:25;38.25;;;27.98;;
74168;SDS011;62523;53.336;83.690;2022-11-03T16:38:26;37.17;;;30.95;;
74168;SDS011;62523;53.336;83.690;2022-11-03T16:43:27;48.95;;;39.17;;
74168;SDS011;62523;53.336;83.690;2022-11-03T16:48:28;46.28;;;36.40;;
74168;SDS011;62523;53.336;83.690;2022-11-03T16:53:30;44.15;;;34.40;;
74168;SDS011;62523;53.336;83.690;2022-11-03T16:58:31;44.75;;;35.17;;
74168;SDS011;62523;53.336;83.690;2022-11-03T17:03:32;46.95;;;37.83;;
74168;SDS011;62523;53.336;83.690;2022-11-03T17:13:35;35.20;;;25.57;;
74168;SDS011;62523;53.336;83.690;2022-11-03T17:18:36;36.58;;;25.15;;
74168;SDS011;62523;53.336;83.690;2022-11-03T17:23:37;67.88;;;44.42;;
74168;SDS011;62523;53.336;83.690;2022-11-03T17:28:38;45.25;;;33.10;;
74168;SDS011;62523;53.336;83.690;2022-11-03T17:33:42;39.83;;;27.13;;
74168;SDS011;62523;53.336;83.690;2022-11-03T17:38:43;42.53;;;28.65;;
74168;SDS011;62523;53.336;83.690;2022-11-03T17:43:44;37.92;;;25.63;;
74168;SDS011;62523;53.336;83.690;2022-11-03T17:53:47;32.10;;;24.10;;
74168;SDS011;62523;53.336;83.690;2022-11-03T17:58:48;41.47;;;23.77;;
74168;SDS011;62523;53.336;83.690;2022-11-03T18:08:51;30.92;;;18.38;;
74168;SDS011;62523;53.336;83.690;2022-11-03T18:13:54;27.42;;;18.02;;
74168;SDS011;62523;53.336;83.690;2022-11-03T18:18:55;107.03;;;72.07;;
74168;SDS011;62523;53.336;83.690;2022-11-03T18:23:57;37.33;;;19.55;;
74168;SDS011;62523;53.336;83.690;2022-11-03T18:28:58;24.13;;;14.65;;
74168;SDS011;62523;53.336;83.690;2022-11-03T18:39:03;18.42;;;15.20;;
74168;SDS011;62523;53.336;83.690;2022-11-03T18:49:14;18.95;;;12.82;;
74168;SDS011;62523;53.336;83.690;2022-11-03T18:54:17;19.58;;;12.80;;
74168;SDS011;62523;53.336;83.690;2022-11-03T18:59:24;18.02;;;12.80;;
74168;SDS011;62523;53.336;83.690;2022-11-03T19:04:28;20.63;;;14.68;;
74168;SDS011;62523;53.336;83.690;2022-11-03T19:09:31;21.33;;;15.10;;
74168;SDS011;62523;53.336;83.690;2022-11-03T19:14:34;15.55;;;12.75;;
74168;SDS011;62523;53.336;83.690;2022-11-03T19:19:37;23.83;;;15.45;;
74168;SDS011;62523;53.336;83.690;2022-11-03T19:24:39;19.27;;;15.88;;
74168;SDS011;62523;53.336;83.690;2022-11-03T19:29:41;18.85;;;13.27;;
74168;SDS011;62523;53.336;83.690;2022-11-03T19:34:43;19.25;;;12.43;;
74168;SDS011;62523;53.336;83.690;2022-11-03T19:39:45;19.77;;;13.55;;
74168;SDS011;62523;53.336;83.690;2022-11-03T19:44:47;22.48;;;15.25;;
74168;SDS011;62523;53.336;83.690;2022-11-03T19:49:50;17.88;;;13.75;;
74168;SDS011;62523;53.336;83.690;2022-11-03T19:54:51;26.95;;;16.20;;
74168;SDS011;62523;53.336;83.690;2022-11-03T19:59:54;22.08;;;15.52;;
74168;SDS011;62523;53.336;83.690;2022-11-03T20:04:58;24.33;;;14.40;;
74168;SDS011;62523;53.336;83.690;2022-11-03T20:09:59;21.67;;;16.15;;
74168;SDS011;62523;53.336;83.690;2022-11-03T20:15:04;23.25;;;14.57;;
74168;SDS011;62523;53.336;83.690;2022-11-03T20:20:17;24.88;;;15.57;;
74168;SDS011;62523;53.336;83.690;2022-11-03T20:25:21;27.10;;;13.85;;
74168;SDS011;62523;53.336;83.690;2022-11-03T20:30:28;24.60;;;15.40;;
74168;SDS011;62523;53.336;83.690;2022-11-03T20:35:29;24.58;;;15.27;;
74168;SDS011;62523;53.336;83.690;2022-11-03T20:40:32;24.48;;;17.25;;
74168;SDS011;62523;53.336;83.690;2022-11-03T20:45:33;26.25;;;17.85;;
74168;SDS011;62523;53.336;83.690;2022-11-03T20:50:34;31.02;;;20.63;;
74168;SDS011;62523;53.336;83.690;2022-11-03T20:55:36;32.45;;;20.48;;
74168;SDS011;62523;53.336;83.690;2022-11-03T21:00:37;34.05;;;18.52;;
74168;SDS011;62523;53.336;83.690;2022-11-03T21:05:40;27.05;;;16.92;;
74168;SDS011;62523;53.336;83.690;2022-11-03T21:10:41;26.73;;;17.27;;
74168;SDS011;62523;53.336;83.690;2022-11-03T21:21:02;37.55;;;18.20;;
74168;SDS011;62523;53.336;83.690;2022-11-03T21:26:08;25.92;;;18.20;;
74168;SDS011;62523;53.336;83.690;2022-11-03T21:31:12;27.98;;;17.67;;
74168;SDS011;62523;53.336;83.690;2022-11-03T21:36:14;28.10;;;18.60;;
74168;SDS011;62523;53.336;83.690;2022-11-03T21:41:15;27.35;;;18.27;;
74168;SDS011;62523;53.336;83.690;2022-11-03T21:46:34;42.10;;;28.92;;
74168;SDS011;62523;53.336;83.690;2022-11-03T21:51:36;47.42;;;30.05;;
74168;SDS011;62523;53.336;83.690;2022-11-03T21:56:37;62.85;;;40.60;;
74168;SDS011;62523;53.336;83.690;2022-11-03T22:01:38;58.28;;;40.40;;
74168;SDS011;62523;53.336;83.690;2022-11-03T22:06:40;48.90;;;34.13;;
74168;SDS011;62523;53.336;83.690;2022-11-03T22:11:41;55.35;;;34.50;;
74168;SDS011;62523;53.336;83.690;2022-11-03T22:16:42;58.03;;;37.40;;
74168;SDS011;62523;53.336;83.690;2022-11-03T22:21:44;58.28;;;35.20;;
74168;SDS011;62523;53.336;83.690;2022-11-03T22:27:03;79.15;;;42.47;;
74168;SDS011;62523;53.336;83.690;2022-11-03T22:32:11;82.88;;;47.90;;
74168;SDS011;62523;53.336;83.690;2022-11-03T22:37:14;96.85;;;48.17;;
74168;SDS011;62523;53.336;83.690;2022-11-03T22:42:15;93.68;;;52.25;;
74168;SDS011;62523;53.336;83.690;2022-11-03T22:47:34;102.93;;;61.42;;
74168;SDS011;62523;53.336;83.690;2022-11-03T22:52:36;85.72;;;47.50;;
74168;SDS011;62523;53.336;83.690;2022-11-03T23:02:38;59.40;;;31.93;;
74168;SDS011;62523;53.336;83.690;2022-11-03T23:12:41;71.70;;;37.53;;
74168;SDS011;62523;53.336;83.690;2022-11-03T23:17:42;52.55;;;33.88;;
74168;SDS011;62523;53.336;83.690;2022-11-03T23:23:01;50.55;;;31.70;;
74168;SDS011;62523;53.336;83.690;2022-11-03T23:28:02;57.90;;;30.58;;
74168;SDS011;62523;53.336;83.690;2022-11-03T23:33:04;65.15;;;37.63;;
74168;SDS011;62523;53.336;83.690;2022-11-03T23:38:05;48.28;;;26.35;;
74168;SDS011;62523;53.336;83.690;2022-11-03T23:43:06;58.08;;;28.70;;
74168;SDS011;62523;53.336;83.690;2022-11-03T23:48:07;74.22;;;30.13;;
74168;SDS011;62523;53.336;83.690;2022-11-03T23:53:27;66.55;;;28.45;;
74168;SDS011;62523;53.336;83.690;2022-11-03T23:58:28;131.60;;;29.65;;
